Time;durP1;ratioP1;P1;durP2;ratioP2;P2;SDS_P1;SDS_P2;PMS_P1;PMS_P2;Temp;Humidity;BMP_temperature;BMP_pressure;BME280_temperature;BME280_humidity;BME280_pressure;Samples;Min_cycle;Max_cycle;Signal;HPM_P1;HPM_P2
2021/12/09 00:01:41;;;;;;;22.15;13.00;;;26.20;99.90;;;;;;5056428;28;20029;-66
2021/12/09 00:04:12;;;;;;;16.17;11.02;;;26.20;99.90;;;;;;5056231;28;20036;-66
2021/12/09 00:06:42;;;;;;;23.77;10.82;;;26.20;99.90;;;;;;5056438;28;20029;-65
2021/12/09 00:09:12;;;;;;;21.23;10.95;;;26.20;99.90;;;;;;5055938;28;20091;-65
2021/12/09 00:11:45;;;;;;;17.42;10.27;;;26.10;99.90;;;;;;5056109;28;20106;-67
2021/12/09 00:14:16;;;;;;;19.25;11.88;;;26.10;99.90;;;;;;5056300;28;20048;-66
2021/12/09 00:16:43;;;;;;;23.58;10.60;;;26.10;99.90;;;;;;5055874;28;20032;-65
2021/12/09 00:19:10;;;;;;;17.15;10.48;;;26.10;99.90;;;;;;5056355;28;20492;-65
2021/12/09 00:21:37;;;;;;;21.00;13.40;;;26.20;99.90;;;;;;5056850;28;20037;-66
2021/12/09 00:24:05;;;;;;;26.05;14.25;;;26.20;99.90;;;;;;5055514;28;20021;-66
2021/12/09 00:26:31;;;;;;;21.67;12.13;;;26.20;99.90;;;;;;5056118;28;20033;-65
2021/12/09 00:28:58;;;;;;;14.07;8.60;;;26.20;99.90;;;;;;5056216;28;20107;-66
2021/12/09 00:31:25;;;;;;;17.67;7.53;;;26.20;99.90;;;;;;5055172;28;20033;-66
2021/12/09 00:33:55;;;;;;;18.70;8.32;;;26.00;99.90;;;;;;5050394;28;20029;-65
2021/12/09 00:36:33;;;;;;;16.33;8.80;;;26.00;99.90;;;;;;5056291;28;20047;-66
2021/12/09 00:39:01;;;;;;;28.13;11.82;;;26.00;99.90;;;;;;5047424;28;20094;-65
2021/12/09 00:41:28;;;;;;;19.48;9.23;;;26.00;99.90;;;;;;5046893;28;20045;-65
2021/12/09 00:43:55;;;;;;;13.63;7.72;;;26.10;99.90;;;;;;5043386;28;20040;-65
2021/12/09 00:46:22;;;;;;;19.13;7.47;;;26.10;99.90;;;;;;5043521;28;20059;-65
2021/12/09 00:48:49;;;;;;;18.20;7.75;;;26.00;99.90;;;;;;5043495;28;20200;-65
2021/12/09 00:51:16;;;;;;;20.05;9.27;;;26.00;99.90;;;;;;5042493;28;20474;-66
2021/12/09 00:53:43;;;;;;;13.63;7.88;;;26.10;99.90;;;;;;5043639;28;20038;-64
2021/12/09 00:56:11;;;;;;;16.55;8.43;;;26.10;99.90;;;;;;5043226;28;20462;-65
2021/12/09 00:58:40;;;;;;;16.40;8.05;;;26.20;99.90;;;;;;5044605;28;20219;-66
2021/12/09 01:01:08;;;;;;;18.17;8.02;;;26.30;99.90;;;;;;5043663;28;20032;-65
2021/12/09 01:03:36;;;;;;;14.77;7.07;;;26.20;99.90;;;;;;5043157;28;20041;-65
2021/12/09 01:06:04;;;;;;;13.93;7.95;;;26.20;99.90;;;;;;5045538;28;20018;-65
2021/12/09 01:08:30;;;;;;;15.65;7.72;;;26.20;99.90;;;;;;5045061;28;20074;-65
2021/12/09 01:10:57;;;;;;;15.63;7.85;;;26.10;99.90;;;;;;5046985;28;20072;-65
2021/12/09 01:13:24;;;;;;;14.13;7.38;;;26.20;99.90;;;;;;5043861;28;20022;-65
2021/12/09 01:15:51;;;;;;;16.55;8.55;;;26.20;99.90;;;;;;5045738;28;20026;-66
2021/12/09 01:18:17;;;;;;;12.93;7.65;;;26.20;99.90;;;;;;5045233;28;20029;-66
2021/12/09 01:20:44;;;;;;;15.75;7.82;;;26.20;99.90;;;;;;5043731;28;20091;-65
2021/12/09 01:23:12;;;;;;;14.77;7.68;;;26.20;99.90;;;;;;5044637;28;20023;-65
2021/12/09 01:25:39;;;;;;;20.65;7.97;;;26.30;99.90;;;;;;5044053;28;20044;-66
2021/12/09 01:28:08;;;;;;;23.50;8.82;;;26.40;99.90;;;;;;5045072;28;20037;-64
2021/12/09 01:30:36;;;;;;;19.92;9.27;;;26.30;99.90;;;;;;5044836;28;20083;-65
2021/12/09 01:33:05;;;;;;;33.10;10.15;;;26.30;99.90;;;;;;5043798;28;20420;-65
2021/12/09 01:35:34;;;;;;;20.75;9.77;;;26.30;99.90;;;;;;5044070;28;20120;-65
2021/12/09 01:38:09;;;;;;;26.23;8.95;;;26.30;99.90;;;;;;5043297;28;20072;-65
2021/12/09 01:40:36;;;;;;;19.23;9.10;;;26.40;99.90;;;;;;5043391;28;20111;-65
2021/12/09 01:43:04;;;;;;;22.55;10.15;;;26.50;99.90;;;;;;5045155;28;20017;-65
2021/12/09 01:45:31;;;;;;;22.73;10.35;;;26.50;99.90;;;;;;5042834;28;20481;-65
2021/12/09 01:47:58;;;;;;;15.13;9.07;;;26.60;99.90;;;;;;5043210;28;20035;-65
2021/12/09 01:50:26;;;;;;;17.98;8.93;;;26.70;99.90;;;;;;5043018;28;20021;-65
2021/12/09 01:52:52;;;;;;;14.65;8.27;;;26.70;99.90;;;;;;5048930;28;20097;-65
2021/12/09 01:55:20;;;;;;;15.27;8.38;;;26.60;99.90;;;;;;5044145;28;20029;-65
2021/12/09 01:57:49;;;;;;;17.17;9.38;;;26.60;99.90;;;;;;5054391;28;20032;-66
2021/12/09 02:00:20;;;;;;;19.02;9.05;;;26.70;99.90;;;;;;5050136;28;20059;-65
2021/12/09 02:02:47;;;;;;;21.02;8.80;;;26.70;99.90;;;;;;5048573;28;20160;-65
2021/12/09 02:05:15;;;;;;;17.95;9.02;;;26.80;99.90;;;;;;5045200;28;20191;-65
2021/12/09 02:07:41;;;;;;;15.90;8.73;;;26.80;99.90;;;;;;5053451;28;20075;-64
2021/12/09 02:10:12;;;;;;;19.08;9.30;;;26.80;99.90;;;;;;5045429;28;20044;-63
2021/12/09 02:12:38;;;;;;;21.38;10.32;;;26.80;99.90;;;;;;5067379;22;20049;-65
2021/12/09 02:15:06;;;;;;;20.92;10.85;;;26.90;99.90;;;;;;5053238;28;20040;-65
2021/12/09 02:17:34;;;;;;;18.60;10.40;;;27.00;99.90;;;;;;5053891;28;20104;-64
2021/12/09 02:20:03;;;;;;;22.02;9.70;;;27.00;99.90;;;;;;5053801;28;20025;-64
2021/12/09 02:22:30;;;;;;;20.80;11.40;;;27.00;99.90;;;;;;5053516;28;20037;-64
2021/12/09 02:24:58;;;;;;;24.02;11.13;;;27.00;99.90;;;;;;5044282;28;20039;-65
2021/12/09 02:27:25;;;;;;;23.50;10.77;;;27.10;99.90;;;;;;5045154;28;20021;-64
2021/12/09 02:29:55;;;;;;;33.53;12.07;;;27.10;99.90;;;;;;5052580;28;20090;-64
2021/12/09 02:32:22;;;;;;;22.55;10.50;;;27.20;99.90;;;;;;5050867;28;20025;-64
2021/12/09 02:34:49;;;;;;;23.40;11.60;;;27.20;99.90;;;;;;5052783;28;20036;-64
2021/12/09 02:37:15;;;;;;;32.83;17.98;;;27.30;99.90;;;;;;5048804;28;20021;-64
2021/12/09 02:39:44;;;;;;;269.08;183.82;;;27.40;99.90;;;;;;5046450;28;20052;-64
2021/12/09 02:42:12;;;;;;;33.40;17.23;;;27.50;99.90;;;;;;5047156;28;20032;-64
2021/12/09 02:44:39;;;;;;;39.95;18.65;;;27.50;99.90;;;;;;5046572;28;20403;-64
2021/12/09 02:47:06;;;;;;;37.13;22.60;;;27.50;99.90;;;;;;5043423;28;20021;-64
2021/12/09 02:49:33;;;;;;;38.30;21.88;;;27.40;99.90;;;;;;5043300;28;20030;-63
2021/12/09 02:52:03;;;;;;;61.13;33.33;;;27.40;99.90;;;;;;5045657;28;20037;-63
2021/12/09 02:54:32;;;;;;;44.38;26.13;;;27.50;99.90;;;;;;5051971;28;20485;-64
2021/12/09 02:57:02;;;;;;;43.75;26.58;;;27.50;99.90;;;;;;5050205;28;20029;-65
2021/12/09 02:59:29;;;;;;;40.70;25.83;;;27.60;99.90;;;;;;5048501;28;20117;-63
2021/12/09 03:01:57;;;;;;;58.47;26.40;;;27.50;99.90;;;;;;5052243;28;20028;-65
2021/12/09 03:04:39;;;;;;;59.33;33.92;;;27.60;99.90;;;;;;5051934;28;20032;-65
2021/12/09 03:07:10;;;;;;;58.70;41.95;;;27.60;99.90;;;;;;5051899;28;20033;-65
2021/12/09 03:09:37;;;;;;;85.53;55.45;;;27.60;99.90;;;;;;5044752;28;20044;-65
2021/12/09 03:12:05;;;;;;;69.63;47.63;;;27.70;99.90;;;;;;5041756;28;20025;-65
2021/12/09 03:14:32;;;;;;;81.50;48.08;;;27.70;99.90;;;;;;5032944;28;20489;-64
2021/12/09 03:16:59;;;;;;;91.05;55.28;;;27.80;99.90;;;;;;5042054;28;20033;-65
2021/12/09 03:19:26;;;;;;;78.00;49.13;;;27.80;99.90;;;;;;5043910;28;20028;-65
2021/12/09 03:21:53;;;;;;;90.05;52.47;;;27.80;99.90;;;;;;5042518;28;20305;-64
2021/12/09 03:24:20;;;;;;;61.13;43.10;;;27.80;99.90;;;;;;5042347;28;20033;-64
2021/12/09 03:26:49;;;;;;;63.03;43.13;;;27.80;99.90;;;;;;5049573;28;20029;-64
2021/12/09 03:29:18;;;;;;;69.07;42.55;;;27.80;99.90;;;;;;5043885;28;20040;-64
2021/12/09 03:31:46;;;;;;;62.90;41.60;;;27.80;99.90;;;;;;5046272;28;20029;-63
2021/12/09 03:34:14;;;;;;;69.30;42.42;;;27.80;99.90;;;;;;5040505;28;20032;-63
2021/12/09 03:36:41;;;;;;;61.30;38.05;;;27.90;99.90;;;;;;5042481;28;20524;-64
2021/12/09 03:39:14;;;;;;;67.03;38.00;;;28.00;99.90;;;;;;5046192;28;20017;-64
2021/12/09 03:41:41;;;;;;;;;;;28.00;99.90;;;;;;5042320;28;20104;-63
2021/12/09 03:44:08;;;;;;;55.63;29.95;;;28.10;99.90;;;;;;5040705;28;19917;-64
2021/12/09 03:46:35;;;;;;;54.75;31.52;;;28.10;99.90;;;;;;5042833;28;20087;-64
2021/12/09 03:49:05;;;;;;;53.42;26.40;;;28.20;99.90;;;;;;5034455;28;20107;-63
2021/12/09 03:51:35;;;;;;;51.08;26.75;;;28.20;99.90;;;;;;5046668;28;20062;-63
2021/12/09 03:54:04;;;;;;;45.25;28.50;;;28.20;99.90;;;;;;5042435;28;20041;-63
2021/12/09 03:56:32;;;;;;;55.72;31.58;;;28.20;99.90;;;;;;5036001;28;20033;-63
2021/12/09 03:58:59;;;;;;;49.38;28.13;;;28.30;99.90;;;;;;5041171;28;20497;-65
2021/12/09 04:01:26;;;;;;;44.20;24.58;;;28.30;99.90;;;;;;5046860;28;20088;-65
2021/12/09 04:03:53;;;;;;;44.75;21.20;;;28.40;99.90;;;;;;5048830;28;20052;-65
2021/12/09 04:06:20;;;;;;;44.80;21.60;;;28.30;99.90;;;;;;5047501;28;20033;-64
2021/12/09 04:08:48;;;;;;;36.15;17.48;;;28.40;99.90;;;;;;5042082;28;20377;-64
2021/12/09 04:11:17;;;;;;;52.70;25.55;;;28.40;99.90;;;;;;5051751;28;20025;-65
2021/12/09 04:13:45;;;;;;;53.08;25.05;;;28.30;99.90;;;;;;5047053;28;20045;-64
2021/12/09 04:16:12;;;;;;;37.92;21.33;;;28.30;99.90;;;;;;5042777;28;20360;-65
2021/12/09 04:18:41;;;;;;;39.00;15.82;;;28.20;99.90;;;;;;5049808;28;20424;-63
2021/12/09 04:21:08;;;;;;;32.38;11.60;;;28.20;99.90;;;;;;5056256;28;20505;-63
2021/12/09 04:23:35;;;;;;;20.20;10.02;;;28.00;99.90;;;;;;5056874;28;20025;-64
2021/12/09 04:26:02;;;;;;;38.13;15.70;;;27.90;99.90;;;;;;5056083;28;20091;-65
2021/12/09 04:28:29;;;;;;;244.43;145.20;;;27.90;99.90;;;;;;5047462;28;20026;-64
2021/12/09 04:30:56;;;;;;;72.43;42.97;;;27.90;99.90;;;;;;5046800;28;20030;-63
2021/12/09 04:33:23;;;;;;;179.18;105.93;;;27.90;99.90;;;;;;5046677;28;20041;-64
2021/12/09 04:35:50;;;;;;;62.90;36.47;;;27.90;99.90;;;;;;5048348;28;20100;-65
2021/12/09 04:38:17;;;;;;;36.28;15.90;;;28.00;99.90;;;;;;5049182;28;20443;-64
2021/12/09 04:40:44;;;;;;;30.40;15.27;;;28.00;99.90;;;;;;5052331;28;20466;-64
2021/12/09 04:43:11;;;;;;;30.55;11.70;;;28.00;99.90;;;;;;5056770;28;20029;-64
2021/12/09 04:45:39;;;;;;;27.00;11.68;;;28.10;99.90;;;;;;5056513;28;20116;-64
2021/12/09 04:48:07;;;;;;;19.10;11.00;;;28.00;99.90;;;;;;5056864;28;20336;-65
2021/12/09 04:50:35;;;;;;;18.90;11.52;;;28.00;99.90;;;;;;5056584;28;20029;-65
2021/12/09 04:53:02;;;;;;;28.45;11.90;;;28.00;99.90;;;;;;5056476;28;20159;-65
2021/12/09 04:55:29;;;;;;;24.45;13.43;;;28.00;99.90;;;;;;5056423;28;20039;-64
2021/12/09 04:57:56;;;;;;;25.85;13.43;;;28.00;99.90;;;;;;5057246;28;20036;-65
2021/12/09 05:00:27;;;;;;;28.77;12.02;;;28.00;99.90;;;;;;5056433;28;20033;-64
2021/12/09 05:03:03;;;;;;;27.02;11.85;;;27.90;99.90;;;;;;5048992;28;20087;-64
2021/12/09 05:05:36;;;;;;;20.77;10.68;;;27.90;99.90;;;;;;5035876;28;20061;-65
2021/12/09 05:08:05;;;;;;;20.77;9.05;;;28.00;99.90;;;;;;5039747;28;20053;-64
2021/12/09 05:10:48;;;;;;;24.67;10.10;;;27.90;99.90;;;;;;5056176;28;20056;-64
2021/12/09 05:13:15;;;;;;;24.70;12.13;;;28.00;99.90;;;;;;5050898;28;20088;-63
2021/12/09 05:15:41;;;;;;;23.27;11.00;;;28.10;99.90;;;;;;5054846;28;20409;-64
2021/12/09 05:18:08;;;;;;;28.00;12.05;;;28.10;99.90;;;;;;5055245;28;20100;-64
2021/12/09 05:20:35;;;;;;;23.27;10.57;;;28.20;99.90;;;;;;5055109;28;20104;-63
2021/12/09 05:23:02;;;;;;;28.55;11.93;;;28.10;99.90;;;;;;5055253;28;20032;-66
2021/12/09 05:25:28;;;;;;;25.67;11.55;;;28.20;99.90;;;;;;5055116;28;20025;-66
2021/12/09 05:27:55;;;;;;;19.88;10.93;;;28.10;99.90;;;;;;5055212;28;20469;-64
2021/12/09 05:30:25;;;;;;;23.80;11.75;;;28.20;99.90;;;;;;5054638;28;20040;-65
2021/12/09 05:32:52;;;;;;;26.10;10.82;;;28.20;99.90;;;;;;5044890;28;20033;-65
2021/12/09 05:35:20;;;;;;;20.73;10.50;;;28.20;99.90;;;;;;5055042;28;20044;-64
2021/12/09 05:37:48;;;;;;;38.17;10.98;;;28.20;99.90;;;;;;5048953;28;20032;-65
2021/12/09 05:40:15;;;;;;;23.25;11.20;;;28.20;99.90;;;;;;5043815;28;20028;-66
2021/12/09 05:42:42;;;;;;;21.60;9.82;;;28.20;99.90;;;;;;5046062;28;20018;-66
2021/12/09 05:45:09;;;;;;;21.15;9.23;;;28.30;99.90;;;;;;5043708;28;20291;-66
2021/12/09 05:47:36;;;;;;;20.77;9.90;;;28.30;99.90;;;;;;5044790;28;20510;-65
2021/12/09 05:50:03;;;;;;;22.10;9.48;;;28.30;99.90;;;;;;5047236;28;20048;-65
2021/12/09 05:52:30;;;;;;;29.48;9.55;;;28.40;99.90;;;;;;5051496;28;20033;-66
2021/12/09 05:54:57;;;;;;;22.98;8.93;;;28.50;99.90;;;;;;5044922;28;20051;-65
2021/12/09 05:57:24;;;;;;;24.83;8.65;;;28.60;99.90;;;;;;5048196;28;20064;-65
2021/12/09 05:59:53;;;;;;;32.72;10.15;;;28.60;99.90;;;;;;5046414;28;20175;-65
2021/12/09 06:02:20;;;;;;;22.25;9.77;;;28.60;99.90;;;;;;5044324;28;20029;-65
2021/12/09 06:04:47;;;;;;;28.65;9.98;;;28.70;99.90;;;;;;5043419;28;20113;-64
2021/12/09 06:07:14;;;;;;;32.45;10.32;;;28.80;99.90;;;;;;5044664;28;20032;-65
2021/12/09 06:09:41;;;;;;;26.00;10.02;;;28.80;99.90;;;;;;5052135;28;20368;-63
2021/12/09 06:12:09;;;;;;;29.35;10.68;;;28.80;99.90;;;;;;5052903;28;20029;-65
2021/12/09 06:14:35;;;;;;;24.88;9.98;;;28.80;99.90;;;;;;5044994;28;20028;-65
2021/12/09 06:17:02;;;;;;;35.13;9.77;;;28.90;99.90;;;;;;5044420;28;20493;-65
2021/12/09 06:19:29;;;;;;;29.63;9.85;;;29.00;99.90;;;;;;5052578;28;20025;-66
2021/12/09 06:21:56;;;;;;;24.23;9.20;;;29.10;99.90;;;;;;5050119;28;20040;-65
2021/12/09 06:24:23;;;;;;;62.85;36.28;;;29.10;99.90;;;;;;5051875;28;20020;-65
2021/12/09 06:26:49;;;;;;;38.88;17.67;;;29.00;99.90;;;;;;5035443;28;20025;-63
2021/12/09 06:29:16;;;;;;;47.88;21.88;;;29.00;99.90;;;;;;5046243;28;20032;-64
2021/12/09 06:31:43;;;;;;;49.22;26.27;;;29.10;99.90;;;;;;5042073;28;20071;-65
2021/12/09 06:34:12;;;;;;;30.83;13.60;;;29.10;99.90;;;;;;5041872;28;20047;-66
2021/12/09 06:36:41;;;;;;;41.28;19.13;;;29.20;99.90;;;;;;5043628;28;20416;-65
2021/12/09 06:39:08;;;;;;;40.60;17.50;;;29.10;99.90;;;;;;5048205;28;20109;-65
2021/12/09 06:41:34;;;;;;;32.08;15.15;;;29.10;99.90;;;;;;5043729;28;20144;-65
2021/12/09 06:44:02;;;;;;;29.10;9.30;;;29.10;99.90;;;;;;5037839;28;20037;-65
2021/12/09 06:46:29;;;;;;;24.10;10.43;;;29.00;99.90;;;;;;5033428;28;20025;-65
2021/12/09 06:48:55;;;;;;;22.23;8.85;;;29.00;99.90;;;;;;5033646;28;20330;-65
2021/12/09 06:51:22;;;;;;;20.65;9.07;;;29.00;99.90;;;;;;5050075;28;20043;-65
2021/12/09 06:53:49;;;;;;;22.33;9.27;;;28.90;99.90;;;;;;5053378;28;20055;-65
2021/12/09 06:56:16;;;;;;;23.10;9.77;;;29.00;99.90;;;;;;5053452;28;20021;-65
2021/12/09 06:58:43;;;;;;;27.27;10.52;;;29.00;99.90;;;;;;5053395;28;20021;-65
2021/12/09 07:01:09;;;;;;;27.42;10.70;;;29.00;99.90;;;;;;5052692;28;20025;-65
2021/12/09 07:03:38;;;;;;;28.52;10.68;;;29.00;99.90;;;;;;5053604;28;20033;-64
2021/12/09 07:06:08;;;;;;;28.90;11.00;;;28.90;99.90;;;;;;5053341;28;20029;-65
2021/12/09 07:08:42;;;;;;;28.15;10.20;;;29.00;99.90;;;;;;5053230;28;20025;-64
2021/12/09 07:11:08;;;;;;;26.30;10.73;;;29.00;99.90;;;;;;5052948;28;20021;-64
2021/12/09 07:13:35;;;;;;;23.15;11.20;;;29.00;99.90;;;;;;5053028;28;20059;-65
2021/12/09 07:16:02;;;;;;;26.73;11.88;;;28.90;99.90;;;;;;5052571;28;20599;-64
2021/12/09 07:18:30;;;;;;;22.48;10.70;;;29.00;99.90;;;;;;5053209;28;20377;-65
2021/12/09 07:20:57;;;;;;;25.85;11.40;;;29.00;99.90;;;;;;5049241;28;20265;-66
2021/12/09 07:23:24;;;;;;;27.35;10.85;;;28.90;99.90;;;;;;5044317;28;20037;-65
2021/12/09 07:25:51;;;;;;;19.20;10.02;;;28.80;99.90;;;;;;5050286;28;20032;-64
2021/12/09 07:28:18;;;;;;;19.55;9.00;;;28.80;99.90;;;;;;5053195;28;20174;-65
2021/12/09 07:30:45;;;;;;;21.92;10.93;;;28.70;99.90;;;;;;5053399;28;20559;-64
2021/12/09 07:33:12;;;;;;;26.05;15.35;;;28.70;99.90;;;;;;5052756;28;20029;-65
2021/12/09 07:35:40;;;;;;;21.95;9.95;;;28.80;99.90;;;;;;5053551;28;20033;-65
2021/12/09 07:38:07;;;;;;;21.42;9.52;;;28.70;99.90;;;;;;5050484;28;20033;-65
2021/12/09 07:40:35;;;;;;;28.83;8.82;;;28.60;99.90;;;;;;5056824;28;20381;-65
2021/12/09 07:43:01;;;;;;;24.65;10.13;;;28.60;99.90;;;;;;5056451;28;20032;-65
2021/12/09 07:45:28;;;;;;;19.92;8.95;;;28.60;99.90;;;;;;5056785;28;20080;-64
2021/12/09 07:47:55;;;;;;;22.15;10.00;;;28.60;99.90;;;;;;5058985;28;20028;-66
2021/12/09 07:50:25;;;;;;;19.40;8.68;;;28.60;99.90;;;;;;5058141;28;20101;-65
2021/12/09 07:52:52;;;;;;;18.55;9.60;;;28.50;99.90;;;;;;5058717;28;20072;-64
2021/12/09 07:55:21;;;;;;;23.90;10.48;;;28.40;99.90;;;;;;5058593;28;20068;-64
2021/12/09 07:57:49;;;;;;;27.05;12.43;;;28.50;99.90;;;;;;5058670;28;20021;-64
2021/12/09 08:00:19;;;;;;;27.10;12.35;;;28.50;99.90;;;;;;5058140;28;20025;-65
2021/12/09 08:02:48;;;;;;;25.77;11.05;;;28.50;99.90;;;;;;5057739;28;20108;-64
2021/12/09 08:05:16;;;;;;;23.00;10.35;;;28.40;99.90;;;;;;5058640;28;20101;-64
2021/12/09 08:07:43;;;;;;;24.77;11.38;;;28.40;99.90;;;;;;5058589;28;20025;-64
2021/12/09 08:10:15;;;;;;;25.10;11.18;;;28.30;99.90;;;;;;5056863;28;20032;-64
2021/12/09 08:12:42;;;;;;;27.33;12.27;;;28.30;99.90;;;;;;5055806;28;20106;-65
2021/12/09 08:15:12;;;;;;;26.75;11.45;;;28.30;99.90;;;;;;5056368;28;20078;-64
2021/12/09 08:17:58;;;;;;;28.90;11.82;;;28.30;99.90;;;;;;5056143;28;20024;-65
2021/12/09 08:20:25;;;;;;;28.80;13.60;;;28.30;99.90;;;;;;5056348;28;20029;-65
2021/12/09 08:22:52;;;;;;;26.08;14.60;;;28.30;99.90;;;;;;5056139;28;20021;-64
2021/12/09 08:25:19;;;;;;;29.90;14.73;;;28.20;99.90;;;;;;5055957;28;20485;-64
2021/12/09 08:27:46;;;;;;;28.08;14.35;;;28.20;99.90;;;;;;5056160;28;20487;-63
2021/12/09 08:30:16;;;;;;;100.07;70.32;;;28.30;99.90;;;;;;5055314;28;20061;-65
2021/12/09 08:32:43;;;;;;;38.63;19.42;;;28.30;99.90;;;;;;5055850;28;20032;-65
2021/12/09 08:35:10;;;;;;;53.28;29.92;;;28.30;99.90;;;;;;5051216;28;20039;-65
2021/12/09 08:37:37;;;;;;;121.43;78.78;;;28.30;99.90;;;;;;5055472;28;20025;-65
2021/12/09 08:40:06;;;;;;;29.90;13.20;;;28.30;99.90;;;;;;5045746;28;20029;-65
2021/12/09 08:42:33;;;;;;;30.98;15.32;;;28.30;99.90;;;;;;5055899;28;20044;-65
2021/12/09 08:45:00;;;;;;;42.08;14.88;;;28.40;99.90;;;;;;5049262;28;20021;-65
2021/12/09 08:47:27;;;;;;;34.15;13.82;;;28.30;99.90;;;;;;5044083;28;20025;-65
2021/12/09 08:49:53;;;;;;;33.03;13.18;;;28.30;99.90;;;;;;5045422;28;20026;-65
2021/12/09 08:52:20;;;;;;;29.95;15.20;;;28.30;99.90;;;;;;5045748;28;20547;-65
2021/12/09 08:54:47;;;;;;;31.73;15.18;;;28.30;99.90;;;;;;5045600;28;20045;-64
2021/12/09 08:57:13;;;;;;;36.00;17.80;;;28.30;99.90;;;;;;5046858;28;20103;-64
2021/12/09 08:59:40;;;;;;;38.78;16.45;;;28.30;99.90;;;;;;5045416;28;20045;-65
2021/12/09 09:02:08;;;;;;;34.35;16.55;;;28.40;99.90;;;;;;5044565;28;20044;-64
2021/12/09 09:04:34;;;;;;;27.50;14.38;;;28.40;99.90;;;;;;5042820;28;20044;-64
2021/12/09 09:07:02;;;;;;;25.90;14.98;;;28.40;99.90;;;;;;5044560;28;20039;-65
2021/12/09 09:09:34;;;;;;;39.20;13.68;;;28.30;99.90;;;;;;5046823;28;20074;-63
2021/12/09 09:12:04;;;;;;;26.23;13.77;;;28.30;99.90;;;;;;5041686;28;20112;-65
2021/12/09 09:14:31;;;;;;;33.33;13.50;;;28.30;99.90;;;;;;5043956;28;20093;-67
2021/12/09 09:16:58;;;;;;;31.58;14.20;;;28.30;99.90;;;;;;5043162;28;20037;-65
2021/12/09 09:19:25;;;;;;;33.08;15.80;;;28.30;99.90;;;;;;5042655;28;20029;-67
2021/12/09 09:21:52;;;;;;;33.00;16.65;;;28.30;99.90;;;;;;5043510;28;20017;-65
2021/12/09 09:24:20;;;;;;;34.40;13.85;;;28.20;99.90;;;;;;5044674;28;20025;-65
2021/12/09 09:26:47;;;;;;;32.90;14.35;;;28.20;99.90;;;;;;5042551;28;20028;-66
2021/12/09 09:29:14;;;;;;;30.40;15.10;;;28.10;99.90;;;;;;5045763;28;20025;-66
2021/12/09 09:31:42;;;;;;;27.25;12.70;;;28.10;99.90;;;;;;5047914;28;20298;-66
2021/12/09 09:34:11;;;;;;;27.65;13.65;;;28.10;99.90;;;;;;5042423;28;20140;-66
2021/12/09 09:36:43;;;;;;;35.20;13.50;;;28.10;99.90;;;;;;5046772;28;20386;-65
2021/12/09 09:39:18;;;;;;;;;;;28.20;99.90;;;;;;5043639;28;20465;-66
2021/12/09 09:42:00;;;;;;;37.13;15.25;;;28.10;99.90;;;;;;5042419;28;19915;-68
2021/12/09 09:44:34;;;;;;;37.67;17.80;;;28.00;99.90;;;;;;5042854;28;20135;-67
2021/12/09 09:47:02;;;;;;;38.53;18.30;;;28.10;99.90;;;;;;5045258;28;20080;-69
2021/12/09 09:49:34;;;;;;;39.55;17.77;;;28.10;99.90;;;;;;5046386;28;20091;-66
2021/12/09 09:52:01;;;;;;;47.10;18.37;;;28.00;99.90;;;;;;5053333;28;20041;-67
2021/12/09 09:54:27;;;;;;;39.53;19.48;;;27.90;99.90;;;;;;5053740;28;20123;-67
2021/12/09 09:56:54;;;;;;;33.33;17.27;;;27.90;99.90;;;;;;5053690;28;20037;-66
2021/12/09 09:59:21;;;;;;;38.92;18.33;;;27.90;99.90;;;;;;5053565;28;20465;-68
2021/12/09 10:01:52;;;;;;;37.67;21.90;;;27.90;99.90;;;;;;5053463;28;20100;-68
2021/12/09 10:04:27;;;;;;;44.20;23.48;;;27.90;99.90;;;;;;5053592;28;20091;-67
2021/12/09 10:06:53;;;;;;;40.05;21.50;;;27.90;99.90;;;;;;5053394;28;20025;-64
2021/12/09 10:09:21;;;;;;;37.58;21.08;;;27.90;99.90;;;;;;5053784;28;20033;-66
2021/12/09 10:11:47;;;;;;;48.88;25.67;;;27.90;99.90;;;;;;5053710;28;20086;-66
2021/12/09 10:14:20;;;;;;;50.95;30.45;;;27.70;99.90;;;;;;5052605;28;20073;-66
2021/12/09 10:17:02;;;;;;;53.80;34.65;;;27.60;99.90;;;;;;5051326;28;20545;-65
2021/12/09 10:19:29;;;;;;;56.07;35.27;;;27.60;99.90;;;;;;5051067;28;20025;-65
2021/12/09 10:22:16;;;;;;;52.28;36.78;;;27.40;99.90;;;;;;5051985;28;20052;-65
2021/12/09 10:24:45;;;;;;;59.38;37.67;;;27.40;99.90;;;;;;5051624;28;20020;-66
2021/12/09 10:27:22;;;;;;;54.17;36.58;;;27.40;99.90;;;;;;5051511;28;20025;-65
2021/12/09 10:29:50;;;;;;;49.08;29.95;;;27.30;99.90;;;;;;5052199;28;20458;-66
2021/12/09 10:32:24;;;;;;;45.88;29.50;;;27.30;99.90;;;;;;5053911;28;20029;-66
2021/12/09 10:34:51;;;;;;;47.47;27.30;;;27.20;99.90;;;;;;5053234;28;20051;-66
2021/12/09 10:37:27;;;;;;;47.55;25.60;;;27.00;99.90;;;;;;5068977;28;20473;-65
2021/12/09 10:39:55;;;;;;;38.20;23.90;;;27.10;99.90;;;;;;5061925;28;20111;-66
2021/12/09 10:42:35;;;;;;;34.75;23.08;;;27.10;99.90;;;;;;5052855;28;20469;-67
2021/12/09 10:45:04;;;;;;;69.18;54.30;;;27.10;99.90;;;;;;5052848;28;20032;-66
2021/12/09 10:50:18;;;;;;;288.55;258.10;;;27.20;99.90;;;;;;5052746;28;20021;-66
2021/12/09 10:52:50;;;;;;;355.15;318.50;;;27.10;99.90;;;;;;5033396;28;20033;-66
2021/12/09 10:55:29;;;;;;;;;;;27.10;99.90;;;;;;5049865;28;20060;-65
2021/12/09 10:58:13;;;;;;;41.92;27.05;;;26.90;99.90;;;;;;5053114;28;20280;-65
2021/12/09 11:00:41;;;;;;;43.40;26.88;;;26.90;99.90;;;;;;5053009;28;20040;-67
2021/12/09 11:03:18;;;;;;;50.70;28.90;;;27.00;99.90;;;;;;5051329;28;20029;-66
2021/12/09 11:06:02;;;;;;;42.60;24.73;;;27.00;99.90;;;;;;5050785;28;20033;-66
2021/12/09 11:08:34;;;;;;;43.50;24.70;;;27.10;99.90;;;;;;5055195;28;20063;-66
2021/12/09 11:11:29;;;;;;;42.05;25.08;;;27.20;99.90;;;;;;5056963;28;20036;-66
2021/12/09 11:14:05;;;;;;;40.15;23.85;;;27.10;99.90;;;;;;5056721;28;20450;-68
2021/12/09 11:16:39;;;;;;;36.78;24.30;;;27.10;99.90;;;;;;5056455;28;20024;-69
2021/12/09 11:19:30;;;;;;;41.80;26.95;;;27.20;99.90;;;;;;5057130;28;20423;-68
2021/12/09 11:22:03;;;;;;;43.65;25.38;;;27.20;99.90;;;;;;5057150;28;20036;-67
2021/12/09 11:24:37;;;;;;;78.25;43.03;;;27.00;99.90;;;;;;5056652;28;20078;-69
2021/12/09 11:27:12;;;;;;;90.07;51.88;;;26.90;99.90;;;;;;5056587;28;20036;-69
2021/12/09 11:29:43;;;;;;;77.95;46.22;;;26.80;99.90;;;;;;5056257;28;20075;-67
2021/12/09 11:32:34;;;;;;;84.38;42.72;;;26.80;99.90;;;;;;5052667;28;20473;-67
2021/12/09 11:35:17;;;;;;;78.72;45.65;;;26.80;99.90;;;;;;5056476;28;20044;-67
2021/12/09 11:37:54;;;;;;;78.70;43.63;;;26.80;99.90;;;;;;5056358;28;20024;-67
2021/12/09 11:40:37;;;;;;;95.43;49.90;;;26.80;99.90;;;;;;5056410;28;20025;-68
2021/12/09 11:43:06;;;;;;;57.83;38.90;;;26.90;99.90;;;;;;5056634;28;20025;-68
2021/12/09 11:45:36;;;;;;;73.88;38.22;;;26.70;99.90;;;;;;5056441;28;20028;-68
2021/12/09 11:48:05;;;;;;;42.63;24.27;;;26.60;99.90;;;;;;5056103;28;20420;-70
2021/12/09 11:50:36;;;;;;;44.15;22.75;;;26.50;99.90;;;;;;5056298;28;20064;-68
2021/12/09 11:53:07;;;;;;;38.72;25.20;;;26.50;99.90;;;;;;5056328;28;20025;-68
2021/12/09 11:55:40;;;;;;;42.35;22.00;;;26.70;99.90;;;;;;5055951;28;20033;-69
2021/12/09 11:58:18;;;;;;;43.90;22.45;;;26.60;99.90;;;;;;5056480;28;20025;-69
2021/12/09 12:12:22;;;;;;;52.95;27.58;;;26.70;99.90;;;;;;5055505;28;20033;-67
2021/12/09 12:14:51;;;;;;;69.93;33.22;;;26.60;99.90;;;;;;5055679;28;20056;-68
2021/12/09 12:22:49;;;;;;;80.78;39.47;;;26.50;99.90;;;;;;5055660;28;20021;-68
2021/12/09 12:28:31;;;;;;;47.95;24.55;;;26.80;99.90;;;;;;5055245;28;20223;-68
2021/12/09 12:33:54;;;;;;;51.83;24.80;;;26.80;99.90;;;;;;5055399;28;20033;-69
2021/12/09 12:39:55;;;;;;;53.05;32.03;;;26.60;99.90;;;;;;5041283;28;20026;-67
2021/12/09 12:42:33;;;;;;;60.50;45.72;;;26.60;99.90;;;;;;5044564;28;20094;-68
2021/12/09 12:47:59;;;;;;;47.17;23.63;;;26.60;99.90;;;;;;5049053;28;20033;-68
2021/12/09 12:50:26;;;;;;;40.30;22.23;;;26.60;99.90;;;;;;5051073;28;20037;-68
2021/12/09 12:52:56;;;;;;;36.08;22.13;;;26.60;99.90;;;;;;5043223;28;20021;-68
2021/12/09 12:55:26;;;;;;;46.28;24.38;;;26.70;99.90;;;;;;5050474;28;20037;-68
2021/12/09 12:57:54;;;;;;;35.47;20.13;;;26.70;99.90;;;;;;5039451;28;20024;-69
2021/12/09 13:00:31;;;;;;;36.45;19.42;;;26.50;99.90;;;;;;5044118;28;20504;-68
2021/12/09 13:13:46;;;;;;;42.88;21.88;;;26.50;99.90;;;;;;5043456;28;20129;-68
2021/12/09 13:16:35;;;;;;;51.13;24.13;;;26.50;99.90;;;;;;5044630;28;20024;-68
2021/12/09 13:21:40;;;;;;;45.40;24.77;;;26.30;99.90;;;;;;5051367;28;20029;-68
2021/12/09 13:27:29;;;;;;;53.92;29.08;;;26.40;99.90;;;;;;5054366;28;20037;-68
2021/12/09 13:30:14;;;;;;;53.15;30.45;;;26.50;99.90;;;;;;5034584;28;20389;-68